createdAt,value
2019-05-15T00:00:45.367Z,15.38
2019-05-15T00:01:50.046Z,14.15
2019-05-15T00:02:54.318Z,12.90
2019-05-15T00:03:58.914Z,13.85
2019-05-15T00:05:03.500Z,14.80
2019-05-15T00:06:08.616Z,14.90
2019-05-15T00:07:13.126Z,14.03
2019-05-15T00:08:18.376Z,15.18
2019-05-15T00:09:24.218Z,15.70
2019-05-15T00:10:28.986Z,13.43
2019-05-15T00:11:35.771Z,15.48
2019-05-15T00:12:40.486Z,13.50
2019-05-15T00:13:44.910Z,13.35
2019-05-15T00:14:49.529Z,14.10
2019-05-15T00:15:53.828Z,13.65
2019-05-15T00:16:58.748Z,15.35
2019-05-15T00:18:02.811Z,13.60
2019-05-15T00:19:08.691Z,13.20
2019-05-15T00:20:12.962Z,15.25
2019-05-15T00:21:17.977Z,13.75
2019-05-15T00:22:25.122Z,15.05
2019-05-15T00:23:29.845Z,14.53
2019-05-15T00:24:38.006Z,14.23
2019-05-15T00:25:41.966Z,13.28
2019-05-15T00:26:48.069Z,14.45
2019-05-15T00:27:52.472Z,13.20
2019-05-15T00:29:09.579Z,15.00
2019-05-15T00:30:03.012Z,13.65
2019-05-15T00:31:09.056Z,13.45
2019-05-15T00:32:13.834Z,13.35
2019-05-15T00:33:19.358Z,13.95
2019-05-15T00:34:25.966Z,14.23
2019-05-15T00:35:31.696Z,13.72
2019-05-15T00:36:38.310Z,14.45
2019-05-15T00:37:42.242Z,13.93
2019-05-15T00:38:48.324Z,14.50
2019-05-15T00:39:54.428Z,13.28
2019-05-15T00:40:59.190Z,14.35
2019-05-15T00:42:03.408Z,15.80
2019-05-15T00:43:08.839Z,14.33
2019-05-15T00:44:13.100Z,15.58
2019-05-15T00:45:18.556Z,14.03
2019-05-15T00:46:22.795Z,14.53
2019-05-15T00:47:28.714Z,14.73
2019-05-15T00:48:33.165Z,14.93
2019-05-15T00:49:38.352Z,12.40
2019-05-15T00:50:42.609Z,15.55
2019-05-15T00:51:48.933Z,16.65
2019-05-15T00:52:53.213Z,14.65
2019-05-15T00:53:58.916Z,16.10
2019-05-15T00:55:05.178Z,14.15
2019-05-15T00:56:11.444Z,15.60
2019-05-15T00:57:15.581Z,14.13
2019-05-15T00:58:20.832Z,15.08
2019-05-15T00:59:27.530Z,13.72
2019-05-15T01:00:44.904Z,16.02
2019-05-15T01:01:49.082Z,14.40
2019-05-15T01:02:53.852Z,14.95
2019-05-15T01:03:58.577Z,15.00
2019-05-15T01:05:04.028Z,15.32
2019-05-15T01:06:08.476Z,15.20
2019-05-15T01:07:13.248Z,14.60
2019-05-15T01:08:19.183Z,15.13
2019-05-15T01:09:23.753Z,13.25
2019-05-15T01:10:28.630Z,14.50
2019-05-15T01:11:33.841Z,14.93
2019-05-15T01:12:38.122Z,14.07
2019-05-15T01:13:48.423Z,15.45
2019-05-15T01:14:52.620Z,15.45
2019-05-15T01:15:58.393Z,14.65
2019-05-15T01:17:02.460Z,15.38
2019-05-15T01:18:09.047Z,15.08
2019-05-15T01:19:15.047Z,14.85
2019-05-15T01:20:21.081Z,13.85
2019-05-15T01:21:29.687Z,14.55
2019-05-15T01:22:39.041Z,14.38
2019-05-15T01:23:45.349Z,14.53
2019-05-15T01:24:50.103Z,14.40
2019-05-15T01:25:54.425Z,13.15
2019-05-15T01:27:00.198Z,15.08
2019-05-15T01:28:04.510Z,15.78
2019-05-15T01:29:09.376Z,15.53
2019-05-15T01:30:14.399Z,15.48
2019-05-15T01:31:19.224Z,13.70
2019-05-15T01:32:23.451Z,14.70
2019-05-15T01:33:29.952Z,14.15
2019-05-15T01:34:34.057Z,15.00
2019-05-15T01:35:38.711Z,13.10
2019-05-15T01:36:42.937Z,14.83
2019-05-15T01:37:48.308Z,14.45
2019-05-15T01:38:52.557Z,15.40
2019-05-15T01:40:00.489Z,15.10
2019-05-15T01:41:04.630Z,14.25
2019-05-15T01:42:11.714Z,14.83
2019-05-15T01:43:18.490Z,15.08
2019-05-15T01:44:23.721Z,14.13
2019-05-15T01:45:28.665Z,14.40
2019-05-15T01:46:35.160Z,14.60
2019-05-15T01:47:39.645Z,13.75
2019-05-15T01:48:44.283Z,15.58
2019-05-15T01:49:49.170Z,14.93
2019-05-15T01:50:54.069Z,14.50
2019-05-15T01:51:58.649Z,14.20
2019-05-15T01:53:03.570Z,14.03
2019-05-15T01:54:09.169Z,12.20
2019-05-15T01:55:14.137Z,11.65
2019-05-15T01:56:19.807Z,13.28
2019-05-15T01:57:24.414Z,12.60
2019-05-15T01:58:28.845Z,13.00
2019-05-15T01:59:34.725Z,11.85
2019-05-15T02:00:41.823Z,13.10
2019-05-15T02:02:01.339Z,14.00
2019-05-15T02:03:00.453Z,13.03
2019-05-15T02:04:05.219Z,13.62
2019-05-15T02:05:10.362Z,15.10
2019-05-15T02:06:15.915Z,16.10
2019-05-15T02:07:20.543Z,14.25
2019-05-15T02:08:25.212Z,14.35
2019-05-15T02:09:29.285Z,13.62
2019-05-15T02:10:34.060Z,15.10
2019-05-15T02:11:38.395Z,15.08
2019-05-15T02:12:43.079Z,15.32
2019-05-15T02:13:47.992Z,15.58
2019-05-15T02:14:53.085Z,15.08
2019-05-15T02:15:58.890Z,16.37
2019-05-15T02:17:03.623Z,14.10
2019-05-15T02:18:08.427Z,16.12
2019-05-15T02:19:13.869Z,15.83
2019-05-15T02:20:18.722Z,14.33
2019-05-15T02:21:23.797Z,16.23
2019-05-15T02:22:28.349Z,14.38
2019-05-15T02:23:33.543Z,12.95
2019-05-15T02:24:39.080Z,14.90
2019-05-15T02:25:44.109Z,14.68
2019-05-15T02:26:49.843Z,14.50
2019-05-15T02:27:54.787Z,13.40
2019-05-15T02:29:00.826Z,14.40
2019-05-15T02:30:22.263Z,14.78
2019-05-15T02:31:14.444Z,14.58
2019-05-15T02:32:20.602Z,14.28
2019-05-15T02:33:25.296Z,13.32
2019-05-15T02:34:30.507Z,14.78
2019-05-15T02:35:38.860Z,13.03
2019-05-15T02:36:42.439Z,13.72
2019-05-15T02:37:49.566Z,14.10
2019-05-15T02:38:59.624Z,13.13
2019-05-15T02:40:02.938Z,12.70
2019-05-15T02:41:09.835Z,12.70
2019-05-15T02:42:13.510Z,11.78
2019-05-15T02:43:19.444Z,10.58
2019-05-15T02:44:23.952Z,12.18
2019-05-15T02:45:31.547Z,11.65
2019-05-15T02:46:38.943Z,11.83
2019-05-15T02:47:42.575Z,12.20
2019-05-15T02:48:49.073Z,11.60
2019-05-15T02:49:55.345Z,12.47
2019-05-15T02:51:01.297Z,12.00
2019-05-15T02:52:09.585Z,10.43
2019-05-15T02:53:13.804Z,11.38
2019-05-15T02:54:21.089Z,12.28
2019-05-15T02:55:29.838Z,10.48
2019-05-15T02:56:34.756Z,10.25
2019-05-15T02:57:39.591Z,11.57
2019-05-15T02:58:44.503Z,10.95
2019-05-15T02:59:49.795Z,10.90
2019-05-15T03:00:59.117Z,11.63
2019-05-15T03:02:02.194Z,11.63
2019-05-15T03:03:09.446Z,12.98
2019-05-15T03:04:12.589Z,11.93
2019-05-15T03:05:19.505Z,12.75
2019-05-15T03:06:23.148Z,12.85
2019-05-15T03:07:29.536Z,12.63
2019-05-15T03:08:33.917Z,12.07
2019-05-15T03:09:39.966Z,12.37
2019-05-15T03:10:44.449Z,12.30
2019-05-15T03:11:49.707Z,12.73
2019-05-15T03:12:54.213Z,12.47
2019-05-15T03:13:59.422Z,13.32
2019-05-15T03:15:04.093Z,12.82
2019-05-15T03:16:10.048Z,12.73
2019-05-15T03:17:14.623Z,13.08
2019-05-15T03:18:19.570Z,12.47
2019-05-15T03:19:23.845Z,11.80
2019-05-15T03:20:30.049Z,14.05
2019-05-15T03:21:34.307Z,12.13
2019-05-15T03:22:40.203Z,13.48
2019-05-15T03:23:44.660Z,13.20
2019-05-15T03:24:50.325Z,12.47
2019-05-15T03:25:54.758Z,11.95
2019-05-15T03:27:00.592Z,12.63
2019-05-15T03:28:04.621Z,14.68
2019-05-15T03:29:09.904Z,13.00
2019-05-15T03:30:15.240Z,13.32
2019-05-15T03:31:43.549Z,12.45
2019-05-15T03:32:41.075Z,12.73
2019-05-15T03:33:43.875Z,14.15
2019-05-15T03:34:47.700Z,14.60
2019-05-15T03:35:53.568Z,13.88
2019-05-15T03:36:54.400Z,12.63
2019-05-15T03:37:59.818Z,11.83
2019-05-15T03:39:05.946Z,12.00
2019-05-15T03:40:11.928Z,12.47
2019-05-15T03:41:19.196Z,11.63
2019-05-15T03:42:22.385Z,12.85
2019-05-15T03:43:29.263Z,13.00
2019-05-15T03:44:34.274Z,13.22
2019-05-15T03:45:40.467Z,13.20
2019-05-15T03:46:44.660Z,13.10
2019-05-15T03:47:49.265Z,13.20
2019-05-15T03:48:53.987Z,12.10
2019-05-15T03:50:00.114Z,11.57
2019-05-15T03:51:04.521Z,13.32
2019-05-15T03:52:09.989Z,12.58
2019-05-15T03:53:14.927Z,13.78
2019-05-15T03:54:22.096Z,11.68
2019-05-15T03:55:29.648Z,11.55
2019-05-15T03:56:32.641Z,12.18
2019-05-15T03:57:39.992Z,12.95
2019-05-15T03:58:44.665Z,12.47
2019-05-15T03:59:49.382Z,12.47
2019-05-15T04:00:53.639Z,11.85
2019-05-15T04:01:59.939Z,14.03
2019-05-15T04:03:04.295Z,12.45
2019-05-15T04:04:11.675Z,12.90
2019-05-15T04:05:15.885Z,12.80
2019-05-15T04:06:20.525Z,11.80
2019-05-15T04:07:29.203Z,12.58
2019-05-15T04:08:34.087Z,12.58
2019-05-15T04:09:38.768Z,13.10
2019-05-15T04:10:43.651Z,11.57
2019-05-15T04:11:49.658Z,12.43
2019-05-15T04:12:54.154Z,12.73
2019-05-15T04:13:59.438Z,11.95
2019-05-15T04:15:09.795Z,11.95
2019-05-15T04:16:12.555Z,13.20
2019-05-15T04:17:19.819Z,11.95
2019-05-15T04:18:23.033Z,11.40
2019-05-15T04:19:29.594Z,11.12
2019-05-15T04:20:33.442Z,11.68
2019-05-15T04:21:43.883Z,11.93
2019-05-15T04:22:45.484Z,12.93
2019-05-15T04:23:50.486Z,11.60
2019-05-15T04:24:55.239Z,11.00
2019-05-15T04:25:59.987Z,11.03
2019-05-15T04:27:07.173Z,11.40
2019-05-15T04:28:12.694Z,12.30
2019-05-15T04:29:19.497Z,11.90
2019-05-15T04:30:23.561Z,10.93
2019-05-15T04:31:35.510Z,11.70
2019-05-15T04:32:34.046Z,11.38
2019-05-15T04:33:39.943Z,11.40
2019-05-15T04:34:44.424Z,11.53
2019-05-15T04:35:49.674Z,11.43
2019-05-15T04:36:54.682Z,11.22
2019-05-15T04:37:59.670Z,11.93
2019-05-15T04:39:09.856Z,11.20
2019-05-15T04:40:13.282Z,10.55
2019-05-15T04:41:19.795Z,11.78
2019-05-15T04:42:23.631Z,11.33
2019-05-15T04:43:30.229Z,12.85
2019-05-15T04:44:35.025Z,11.38
2019-05-15T04:45:39.949Z,13.08
2019-05-15T04:46:44.054Z,11.68
2019-05-15T04:47:49.837Z,11.18
2019-05-15T04:48:54.310Z,11.80
2019-05-15T04:50:01.048Z,11.57
2019-05-15T04:51:05.138Z,10.88
2019-05-15T04:52:10.483Z,12.85
2019-05-15T04:53:19.140Z,11.40
2019-05-15T04:54:24.254Z,12.18
2019-05-15T04:55:29.190Z,11.97
2019-05-15T04:56:34.187Z,11.95
2019-05-15T04:57:40.222Z,11.83
2019-05-15T04:58:44.954Z,13.03
2019-05-15T04:59:49.675Z,11.03
2019-05-15T05:00:55.575Z,10.68
2019-05-15T05:02:16.414Z,12.37
2019-05-15T05:03:06.194Z,12.40
2019-05-15T05:04:10.450Z,11.05
2019-05-15T05:05:15.092Z,11.60
2019-05-15T05:06:20.809Z,11.75
2019-05-15T05:07:25.548Z,11.30
2019-05-15T05:08:29.756Z,12.63
2019-05-15T05:09:34.522Z,12.03
2019-05-15T05:10:39.532Z,12.85
2019-05-15T05:11:44.421Z,10.85
2019-05-15T05:12:50.913Z,11.68
2019-05-15T05:13:54.984Z,11.97
2019-05-15T05:14:59.139Z,10.80
2019-05-15T05:16:03.769Z,12.23
2019-05-15T05:17:09.173Z,11.78
2019-05-15T05:18:14.326Z,12.82
2019-05-15T05:19:19.556Z,9.90
2019-05-15T05:20:25.823Z,11.22
2019-05-15T05:21:30.534Z,10.20
2019-05-15T05:22:35.331Z,11.57
2019-05-15T05:23:39.622Z,12.00
2019-05-15T05:24:44.382Z,11.53
2019-05-15T05:25:49.371Z,11.05
2019-05-15T05:26:54.227Z,11.45
2019-05-15T05:27:58.468Z,11.10
2019-05-15T05:29:03.176Z,10.13
2019-05-15T05:30:09.234Z,10.85
2019-05-15T05:31:14.365Z,10.75
2019-05-15T05:32:30.951Z,11.93
2019-05-15T05:33:24.913Z,9.70
2019-05-15T05:34:31.175Z,9.75
2019-05-15T05:35:35.818Z,10.03
2019-05-15T05:36:40.019Z,11.35
2019-05-15T05:37:44.841Z,9.88
2019-05-15T05:38:51.163Z,10.23
2019-05-15T05:39:57.613Z,9.73
2019-05-15T05:41:01.725Z,9.33
2019-05-15T05:42:07.898Z,10.00
2019-05-15T05:43:12.097Z,10.48
2019-05-15T05:44:18.870Z,9.63
2019-05-15T05:45:23.327Z,9.10
2019-05-15T05:46:28.106Z,8.53
2019-05-15T05:47:32.513Z,9.98
2019-05-15T05:48:38.318Z,9.70
2019-05-15T05:49:44.967Z,10.58
2019-05-15T05:50:50.252Z,10.70
2019-05-15T05:51:54.686Z,9.98
2019-05-15T05:53:00.998Z,9.85
2019-05-15T05:54:08.457Z,11.43
2019-05-15T05:55:13.088Z,11.30
2019-05-15T05:56:18.226Z,9.25
2019-05-15T05:57:23.180Z,10.38
2019-05-15T05:58:29.694Z,10.38
2019-05-15T05:59:33.742Z,9.83
2019-05-15T06:00:40.830Z,10.23
2019-05-15T06:01:48.172Z,11.08
2019-05-15T06:02:52.283Z,11.05
2019-05-15T06:03:58.346Z,9.78
2019-05-15T06:05:02.540Z,11.28
2019-05-15T06:06:09.731Z,10.90
2019-05-15T06:07:14.251Z,9.58
2019-05-15T06:08:20.114Z,9.78
2019-05-15T06:09:24.912Z,8.08
2019-05-15T06:10:31.263Z,10.38
2019-05-15T06:11:38.142Z,10.28
2019-05-15T06:12:52.380Z,11.48
2019-05-15T06:13:58.541Z,10.38
2019-05-15T06:15:03.442Z,9.55
2019-05-15T06:16:10.195Z,9.68
2019-05-15T06:17:15.237Z,10.53
2019-05-15T06:18:20.087Z,11.00
2019-05-15T06:19:25.042Z,9.75
2019-05-15T06:20:29.343Z,9.55
2019-05-15T06:21:34.081Z,10.00
2019-05-15T06:22:39.379Z,9.88
2019-05-15T06:23:54.710Z,10.43
2019-05-15T06:24:50.428Z,9.85
2019-05-15T06:25:55.635Z,10.50
2019-05-15T06:27:00.017Z,11.65
2019-05-15T06:28:09.111Z,10.35
2019-05-15T06:29:20.095Z,9.48
2019-05-15T06:30:30.953Z,8.88
2019-05-15T06:31:35.402Z,10.63
2019-05-15T06:32:40.695Z,9.38
2019-05-15T06:33:44.870Z,10.08
2019-05-15T06:34:51.078Z,10.05
2019-05-15T06:35:55.278Z,9.58
2019-05-15T06:37:00.075Z,10.70
2019-05-15T06:38:04.288Z,9.43
2019-05-15T06:39:10.402Z,9.68
2019-05-15T06:40:18.313Z,9.35
2019-05-15T06:41:23.051Z,10.65
2019-05-15T06:42:28.289Z,9.85
2019-05-15T06:43:33.164Z,10.88
2019-05-15T06:44:38.805Z,11.40
2019-05-15T06:45:43.652Z,9.65
2019-05-15T06:46:50.678Z,11.53
2019-05-15T06:47:57.804Z,10.08
2019-05-15T06:49:01.296Z,10.35
2019-05-15T06:50:08.633Z,10.58
2019-05-15T06:51:12.899Z,9.85
2019-05-15T06:52:18.104Z,10.00
2019-05-15T06:53:22.327Z,10.10
2019-05-15T06:54:28.433Z,10.58
2019-05-15T06:55:32.732Z,8.65
2019-05-15T06:56:38.881Z,9.73
2019-05-15T06:57:43.194Z,9.13
2019-05-15T06:58:48.781Z,9.50
2019-05-15T06:59:53.039Z,9.38
2019-05-15T07:00:59.182Z,9.28
2019-05-15T07:02:03.667Z,9.85
2019-05-15T07:03:18.089Z,10.53
2019-05-15T07:04:14.064Z,10.50
2019-05-15T07:05:18.776Z,9.25
2019-05-15T07:06:23.041Z,9.60
2019-05-15T07:07:28.763Z,10.65
2019-05-15T07:08:33.081Z,10.00
2019-05-15T07:09:38.114Z,9.80
2019-05-15T07:10:42.333Z,10.60
2019-05-15T07:11:48.214Z,10.78
2019-05-15T07:12:54.160Z,9.30
2019-05-15T07:13:58.814Z,10.60
2019-05-15T07:15:02.982Z,10.13
2019-05-15T07:16:08.243Z,10.58
2019-05-15T07:17:12.581Z,9.90
2019-05-15T07:18:19.390Z,10.48
2019-05-15T07:19:22.954Z,10.15
2019-05-15T07:20:28.491Z,9.88
2019-05-15T07:21:32.712Z,10.60
2019-05-15T07:22:39.087Z,9.90
2019-05-15T07:23:43.215Z,9.78
2019-05-15T07:24:47.993Z,9.98
2019-05-15T07:25:53.590Z,10.10
2019-05-15T07:26:59.138Z,10.23
2019-05-15T07:28:03.555Z,10.18
2019-05-15T07:29:08.308Z,10.05
2019-05-15T07:30:12.618Z,11.55
2019-05-15T07:31:18.038Z,10.43
2019-05-15T07:32:22.342Z,11.45
2019-05-15T07:33:38.695Z,10.65
2019-05-15T07:34:32.768Z,10.78
2019-05-15T07:35:38.431Z,10.55
2019-05-15T07:36:42.987Z,10.30
2019-05-15T07:37:47.924Z,11.05
2019-05-15T07:38:52.199Z,11.38
2019-05-15T07:39:58.999Z,10.50
2019-05-15T07:41:04.424Z,10.20
2019-05-15T07:42:08.858Z,10.85
2019-05-15T07:43:12.948Z,9.88
2019-05-15T07:44:18.891Z,11.05
2019-05-15T07:45:23.493Z,11.35
2019-05-15T07:46:28.866Z,11.10
2019-05-15T07:47:33.314Z,10.35
2019-05-15T07:48:38.487Z,10.93
2019-05-15T07:49:42.824Z,10.55
2019-05-15T07:50:49.716Z,11.40
2019-05-15T07:51:53.366Z,10.78
2019-05-15T07:52:59.079Z,9.33
2019-05-15T07:54:03.357Z,9.98
2019-05-15T07:55:09.525Z,10.80
2019-05-15T07:56:13.639Z,10.48
2019-05-15T07:57:19.317Z,9.98
2019-05-15T07:58:23.659Z,10.60
2019-05-15T07:59:28.380Z,10.43
2019-05-15T08:00:32.690Z,11.22
2019-05-15T08:01:38.691Z,11.20
2019-05-15T08:02:43.008Z,11.03
2019-05-15T08:03:59.194Z,10.13
2019-05-15T08:04:53.426Z,10.43
2019-05-15T08:06:02.310Z,10.35
2019-05-15T08:07:03.847Z,9.28
2019-05-15T08:08:08.922Z,10.58
2019-05-15T08:09:13.038Z,10.40
2019-05-15T08:10:18.694Z,10.58
2019-05-15T08:11:24.796Z,11.12
2019-05-15T08:12:29.039Z,11.33
2019-05-15T08:13:33.134Z,11.10
2019-05-15T08:14:38.770Z,11.10
2019-05-15T08:15:43.186Z,10.15
2019-05-15T08:16:48.513Z,10.20
2019-05-15T08:18:05.456Z,10.43
2019-05-15T08:18:59.206Z,10.45
2019-05-15T08:20:04.932Z,11.88
2019-05-15T08:21:09.626Z,10.80
2019-05-15T08:22:15.195Z,10.63
2019-05-15T08:23:20.022Z,10.85
2019-05-15T08:24:24.110Z,11.88
2019-05-15T08:25:35.127Z,11.65
2019-05-15T08:26:34.528Z,10.53
2019-05-15T08:27:39.164Z,9.93
2019-05-15T08:28:43.255Z,10.85
2019-05-15T08:29:48.732Z,10.82
2019-05-15T08:30:53.018Z,10.93
2019-05-15T08:31:59.022Z,9.98
2019-05-15T08:33:03.418Z,8.45
2019-05-15T08:34:13.661Z,11.20
2019-05-15T08:35:14.327Z,9.55
2019-05-15T08:36:19.019Z,10.63
2019-05-15T08:37:23.156Z,11.85
2019-05-15T08:38:28.813Z,9.58
2019-05-15T08:39:34.766Z,9.98
2019-05-15T08:40:41.006Z,10.45
2019-05-15T08:41:45.422Z,9.90
2019-05-15T08:42:56.596Z,10.20
2019-05-15T08:43:57.939Z,10.30
2019-05-15T08:45:02.755Z,10.63
2019-05-15T08:46:08.252Z,10.05
2019-05-15T08:47:13.304Z,10.10
2019-05-15T08:48:18.485Z,11.18
2019-05-15T08:49:23.543Z,10.10
2019-05-15T08:50:28.722Z,10.20
2019-05-15T08:51:33.445Z,11.05
2019-05-15T08:52:39.295Z,10.63
2019-05-15T08:53:44.134Z,10.75
2019-05-15T08:54:48.758Z,9.68
2019-05-15T08:55:53.633Z,10.90
2019-05-15T08:56:59.163Z,10.93
2019-05-15T08:58:08.489Z,9.80
2019-05-15T08:59:09.813Z,10.63
2019-05-15T09:00:14.902Z,10.23
2019-05-15T09:01:19.143Z,11.05
2019-05-15T09:02:23.780Z,11.18
2019-05-15T09:03:28.625Z,10.13
2019-05-15T09:04:35.058Z,10.60
2019-05-15T09:05:39.019Z,9.28
2019-05-15T09:06:43.656Z,12.13
2019-05-15T09:07:48.704Z,12.05
2019-05-15T09:08:53.610Z,10.88
2019-05-15T09:09:58.035Z,11.33
2019-05-15T09:11:03.074Z,10.35
2019-05-15T09:12:08.267Z,11.00
2019-05-15T09:13:13.182Z,11.60
2019-05-15T09:14:18.533Z,11.00
2019-05-15T09:15:23.863Z,10.40
2019-05-15T09:16:28.125Z,11.45
2019-05-15T09:17:32.858Z,11.10
2019-05-15T09:18:39.095Z,10.98
2019-05-15T09:19:43.330Z,10.00
2019-05-15T09:20:49.249Z,10.00
2019-05-15T09:21:53.829Z,11.18
2019-05-15T09:22:58.342Z,11.93
2019-05-15T09:24:04.595Z,11.45
2019-05-15T09:25:10.616Z,11.53
2019-05-15T09:26:15.294Z,11.50
2019-05-15T09:27:19.466Z,11.93
2019-05-15T09:28:24.094Z,11.95
2019-05-15T09:29:28.506Z,12.03
2019-05-15T09:30:33.384Z,11.68
2019-05-15T09:31:39.140Z,11.45
2019-05-15T09:32:43.742Z,11.60
2019-05-15T09:33:49.286Z,11.80
2019-05-15T09:34:55.631Z,10.60
2019-05-15T09:35:59.893Z,10.75
2019-05-15T09:37:04.617Z,10.90
2019-05-15T09:38:09.332Z,9.98
2019-05-15T09:39:29.135Z,10.00
2019-05-15T09:40:20.249Z,11.30
2019-05-15T09:41:24.968Z,11.73
2019-05-15T09:42:29.178Z,10.30
2019-05-15T09:43:33.874Z,10.25
2019-05-15T09:44:39.168Z,10.70
2019-05-15T09:45:43.966Z,11.70
2019-05-15T09:46:48.914Z,11.00
2019-05-15T09:47:53.628Z,10.50
2019-05-15T09:48:59.274Z,11.15
2019-05-15T09:50:05.553Z,11.28
2019-05-15T09:51:09.695Z,10.70
2019-05-15T09:52:14.366Z,10.58
2019-05-15T09:53:19.236Z,10.43
2019-05-15T09:54:25.664Z,10.98
2019-05-15T09:55:29.904Z,11.15
2019-05-15T09:56:34.527Z,11.75
2019-05-15T09:57:39.203Z,11.18
2019-05-15T09:58:43.872Z,10.30
2019-05-15T09:59:48.845Z,10.68
2019-05-15T10:00:53.811Z,10.43
2019-05-15T10:01:58.901Z,11.50
2019-05-15T10:03:03.673Z,10.93
2019-05-15T10:04:08.306Z,11.30
2019-05-15T10:05:14.381Z,11.80
2019-05-15T10:06:20.608Z,11.38
2019-05-15T10:07:24.906Z,9.95
2019-05-15T10:08:29.381Z,11.43
2019-05-15T10:09:35.635Z,11.80
2019-05-15T10:10:39.710Z,11.15
2019-05-15T10:11:44.528Z,10.48
2019-05-15T10:12:49.530Z,11.57
2019-05-15T10:13:54.352Z,10.40
2019-05-15T10:14:59.193Z,10.93
2019-05-15T10:16:04.103Z,11.50
2019-05-15T10:17:09.217Z,11.53
2019-05-15T10:18:14.144Z,11.48
2019-05-15T10:19:18.701Z,10.28
2019-05-15T10:20:23.563Z,11.03
2019-05-15T10:21:32.148Z,10.93
2019-05-15T10:22:34.127Z,12.20
2019-05-15T10:23:40.334Z,11.30
2019-05-15T10:24:44.528Z,12.33
2019-05-15T10:25:48.823Z,11.43
2019-05-15T10:26:53.634Z,11.65
2019-05-15T10:27:58.001Z,11.80
2019-05-15T10:29:02.831Z,11.70
2019-05-15T10:30:09.205Z,12.03
2019-05-15T10:31:14.062Z,9.93
2019-05-15T10:32:19.416Z,11.28
2019-05-15T10:33:24.394Z,11.15
2019-05-15T10:34:28.910Z,11.33
2019-05-15T10:35:33.660Z,10.35
2019-05-15T10:36:38.774Z,12.03
2019-05-15T10:37:43.440Z,11.00
2019-05-15T10:38:48.832Z,11.68
2019-05-15T10:39:53.805Z,10.15
2019-05-15T10:41:08.106Z,10.25
2019-05-15T10:42:04.212Z,9.73
2019-05-15T10:43:09.261Z,9.05
2019-05-15T10:44:14.230Z,9.05
2019-05-15T10:45:19.399Z,8.53
2019-05-15T10:46:24.251Z,8.38
2019-05-15T10:47:28.954Z,8.90
2019-05-15T10:48:34.258Z,9.30
2019-05-15T10:49:38.959Z,9.78
2019-05-15T10:50:43.747Z,8.08
2019-05-15T10:51:47.846Z,7.85
2019-05-15T10:52:52.582Z,7.25
2019-05-15T10:53:56.655Z,7.12
2019-05-15T10:55:01.331Z,6.87
2019-05-15T10:56:05.677Z,6.15
2019-05-15T10:57:10.302Z,6.00
2019-05-15T10:58:20.957Z,6.00
2019-05-15T10:59:20.613Z,4.75
2019-05-15T11:00:25.201Z,5.08
2019-05-15T11:01:29.837Z,5.47
2019-05-15T11:02:34.095Z,5.15
2019-05-15T11:03:39.977Z,5.22
2019-05-15T11:04:44.699Z,4.95
2019-05-15T11:05:49.486Z,4.60
2019-05-15T11:06:53.577Z,4.85
2019-05-15T11:07:58.921Z,4.87
2019-05-15T11:09:08.216Z,4.47
2019-05-15T11:10:12.132Z,4.87
2019-05-15T11:11:18.200Z,4.80
2019-05-15T11:12:22.514Z,4.90
2019-05-15T11:13:28.680Z,5.28
2019-05-15T11:14:33.111Z,5.12
2019-05-15T11:15:40.503Z,5.42
2019-05-15T11:16:43.638Z,5.00
2019-05-15T11:17:49.159Z,5.37
2019-05-15T11:18:54.030Z,5.12
2019-05-15T11:19:58.623Z,5.65
2019-05-15T11:21:03.411Z,6.12
2019-05-15T11:22:09.067Z,5.53
2019-05-15T11:23:19.532Z,6.03
2019-05-15T11:24:22.685Z,4.75
2019-05-15T11:25:29.941Z,6.28
2019-05-15T11:26:33.619Z,6.22
2019-05-15T11:27:39.124Z,6.22
2019-05-15T11:28:43.567Z,6.15
2019-05-15T11:29:48.235Z,6.58
2019-05-15T11:30:52.381Z,5.97
2019-05-15T11:31:58.105Z,6.40
2019-05-15T11:33:02.541Z,5.95
2019-05-15T11:34:09.328Z,5.83
2019-05-15T11:35:14.974Z,6.33
2019-05-15T11:36:19.586Z,6.08
2019-05-15T11:37:23.659Z,6.50
2019-05-15T11:38:28.915Z,5.92
2019-05-15T11:39:33.391Z,6.15
2019-05-15T11:40:38.889Z,6.00
2019-05-15T11:41:43.173Z,6.55
2019-05-15T11:42:48.726Z,6.67
2019-05-15T11:43:53.083Z,6.55
2019-05-15T11:44:58.445Z,6.42
2019-05-15T11:46:02.752Z,6.47
2019-05-15T11:47:07.506Z,6.72
2019-05-15T11:48:11.618Z,6.62
2019-05-15T11:49:18.252Z,7.15
2019-05-15T11:50:23.550Z,6.37
2019-05-15T11:51:29.021Z,6.40
2019-05-15T11:52:36.371Z,7.03
2019-05-15T11:53:39.965Z,7.00
2019-05-15T11:54:44.177Z,6.42
2019-05-15T11:55:48.646Z,6.80
2019-05-15T11:56:52.793Z,7.35
2019-05-15T11:57:59.376Z,7.50
2019-05-15T11:59:03.213Z,6.70
2019-05-15T12:00:17.271Z,6.85
2019-05-15T12:01:15.356Z,6.47
2019-05-15T12:02:20.026Z,6.58
2019-05-15T12:03:24.921Z,7.60
2019-05-15T12:04:34.125Z,6.80
2019-05-15T12:05:38.291Z,6.75
2019-05-15T12:06:41.916Z,7.50
2019-05-15T12:07:47.910Z,6.87
2019-05-15T12:08:52.284Z,7.12
2019-05-15T12:09:58.091Z,6.85
2019-05-15T12:11:02.621Z,7.35
2019-05-15T12:12:08.811Z,6.92
2019-05-15T12:13:12.956Z,7.80
2019-05-15T12:14:19.419Z,7.35
2019-05-15T12:15:23.433Z,7.10
2019-05-15T12:16:29.071Z,7.35
2019-05-15T12:17:34.281Z,7.72
2019-05-15T12:18:39.026Z,7.42
2019-05-15T12:19:43.865Z,7.78
2019-05-15T12:20:48.617Z,7.80
2019-05-15T12:21:53.426Z,7.08
2019-05-15T12:22:59.461Z,6.58
2019-05-15T12:24:03.851Z,7.40
2019-05-15T12:25:10.015Z,7.25
2019-05-15T12:26:15.032Z,7.60
2019-05-15T12:27:19.245Z,7.70
2019-05-15T12:28:23.913Z,7.83
2019-05-15T12:29:28.626Z,7.47
2019-05-15T12:30:33.608Z,6.92
2019-05-15T12:31:38.811Z,7.03
2019-05-15T12:32:43.719Z,6.33
2019-05-15T12:33:49.346Z,6.12
2019-05-15T12:34:54.000Z,7.20
2019-05-15T12:35:58.451Z,7.08
2019-05-15T12:37:03.051Z,7.03
2019-05-15T12:38:09.945Z,6.85
2019-05-15T12:39:14.022Z,6.70
2019-05-15T13:00:10.667Z,5.83
2019-05-15T13:01:18.271Z,5.20
2019-05-15T13:02:23.585Z,5.33
2019-05-15T13:03:28.987Z,5.50
2019-05-15T13:04:33.418Z,4.62
2019-05-15T13:05:39.302Z,5.10
2019-05-15T13:06:49.453Z,5.30
2019-05-15T13:07:49.827Z,5.17
2019-05-15T13:08:53.968Z,5.35
2019-05-15T13:09:58.603Z,5.03
2019-05-15T13:11:02.733Z,4.72
2019-05-15T13:12:08.535Z,5.20
2019-05-15T13:13:12.803Z,4.70
2019-05-15T13:14:18.891Z,4.60
2019-05-15T13:15:23.125Z,4.95
2019-05-15T13:16:28.195Z,4.58
2019-05-15T13:17:32.458Z,4.67
2019-05-15T13:18:38.787Z,4.30
2019-05-15T13:19:43.057Z,4.42
2019-05-15T13:20:48.980Z,4.80
2019-05-15T13:21:53.221Z,4.35
2019-05-15T13:23:00.379Z,4.47
2019-05-15T13:24:03.526Z,4.35
2019-05-15T13:25:09.222Z,4.65
2019-05-15T13:26:23.788Z,4.90
2019-05-15T13:27:22.548Z,4.55
2019-05-15T13:28:28.773Z,4.17
2019-05-15T13:29:33.050Z,4.58
2019-05-15T13:30:40.459Z,3.83
2019-05-15T13:31:43.539Z,4.08
2019-05-15T13:32:49.587Z,4.35
2019-05-15T13:33:53.916Z,3.75
2019-05-15T13:34:59.525Z,4.33
2019-05-15T13:36:04.325Z,4.12
2019-05-15T13:37:08.961Z,4.10
2019-05-15T13:38:13.898Z,4.15
2019-05-15T13:39:18.504Z,3.98
2019-05-15T13:40:35.039Z,4.35
2019-05-15T13:41:29.256Z,3.67
2019-05-15T13:42:35.392Z,4.17
2019-05-15T13:43:39.535Z,4.00
2019-05-15T13:44:44.159Z,4.22
2019-05-15T13:45:49.151Z,4.25
2019-05-15T13:46:53.974Z,3.83
2019-05-15T13:47:58.069Z,4.22
2019-05-15T13:49:02.848Z,3.65
2019-05-15T13:50:08.622Z,3.52
2019-05-15T13:51:13.100Z,3.37
2019-05-15T13:52:18.788Z,3.55
2019-05-15T13:53:23.728Z,3.95
2019-05-15T13:54:28.561Z,4.05
2019-05-15T13:55:37.370Z,3.75
2019-05-15T13:56:39.304Z,3.80
2019-05-15T13:57:43.960Z,4.00
2019-05-15T13:58:50.510Z,3.75
2019-05-15T13:59:55.466Z,3.98
2019-05-15T14:00:59.684Z,3.95
2019-05-15T14:02:04.451Z,3.80
2019-05-15T14:03:09.331Z,3.67
2019-05-15T14:04:18.161Z,3.85
2019-05-15T14:05:21.279Z,3.70
2019-05-15T14:06:28.433Z,3.92
2019-05-15T14:07:44.962Z,4.42
2019-05-15T14:08:38.404Z,3.95
2019-05-15T14:09:44.693Z,3.75
2019-05-15T14:10:49.127Z,4.08
2019-05-15T14:11:53.197Z,4.10
2019-05-15T14:12:58.378Z,4.30
2019-05-15T14:14:02.642Z,3.87
2019-05-15T14:15:09.240Z,3.87
2019-05-15T14:16:14.866Z,3.77
2019-05-15T14:17:19.563Z,3.95
2019-05-15T14:18:23.635Z,4.08
2019-05-15T14:19:28.279Z,3.90
2019-05-15T14:20:34.402Z,4.15
2019-05-15T14:21:39.099Z,4.10
2019-05-15T14:22:43.347Z,4.15
2019-05-15T14:23:48.092Z,3.87
2019-05-15T14:24:52.148Z,3.87
2019-05-15T14:25:58.889Z,4.50
2019-05-15T14:27:08.873Z,3.72
2019-05-15T14:28:15.030Z,4.15
2019-05-15T14:29:19.171Z,3.95
2019-05-15T14:30:24.112Z,3.92